createdAt,value
2022-12-05T00:01:24.754Z,89.88
2022-12-05T00:06:56.515Z,90.05
2022-12-05T00:12:28.359Z,89.86
2022-12-05T00:18:00.081Z,90.05
2022-12-05T00:23:31.789Z,90.03
2022-12-05T00:29:03.541Z,89.77
2022-12-05T00:34:41.298Z,90.04
2022-12-05T00:40:13.197Z,90.08
2022-12-05T00:45:45.069Z,90.10
2022-12-05T00:51:22.678Z,90.17
2022-12-05T00:56:54.472Z,90.49
2022-12-05T01:02:32.273Z,90.40
2022-12-05T01:08:10.169Z,90.13
2022-12-05T01:13:47.760Z,90.58
2022-12-05T01:19:19.527Z,90.78
2022-12-05T01:24:51.187Z,90.82
2022-12-05T01:30:23.214Z,90.75
2022-12-05T01:41:24.741Z,90.60
2022-12-05T01:46:56.393Z,90.96
2022-12-05T01:52:28.361Z,90.86
2022-12-05T01:58:05.936Z,90.94
2022-12-05T02:09:21.153Z,91.39
2022-12-05T02:14:59.035Z,91.94
2022-12-05T02:20:36.827Z,91.70
2022-12-05T02:26:14.374Z,91.32
2022-12-05T02:31:52.984Z,91.80
2022-12-05T02:37:25.166Z,91.98
2022-12-05T02:39:37.336Z,91.85
2022-12-05T02:45:15.248Z,92.33
2022-12-05T02:50:47.114Z,92.57
2022-12-05T02:56:18.789Z,92.70
2022-12-05T03:01:56.440Z,92.71
2022-12-05T03:07:28.120Z,92.89
2022-12-05T03:12:59.379Z,92.77
2022-12-05T03:18:30.678Z,92.92
2022-12-05T03:24:08.164Z,92.93
2022-12-05T03:29:46.168Z,92.99
2022-12-05T03:35:18.599Z,92.76
2022-12-05T03:40:55.813Z,92.76
2022-12-05T03:46:33.432Z,92.39
2022-12-05T03:52:10.905Z,92.35
2022-12-05T03:57:48.574Z,92.35
2022-12-05T04:03:26.407Z,92.10
2022-12-05T04:09:04.244Z,91.66
2022-12-05T04:14:41.655Z,91.93
2022-12-05T04:20:13.522Z,91.93
2022-12-05T04:25:46.619Z,91.97
2022-12-05T04:31:18.077Z,91.72
2022-12-05T04:36:55.331Z,91.85
2022-12-05T04:42:33.066Z,91.67
2022-12-05T04:48:04.960Z,91.76
2022-12-05T04:53:36.707Z,91.78
2022-12-05T04:59:08.493Z,91.84
2022-12-05T05:04:40.147Z,91.92
2022-12-05T05:10:11.956Z,91.98
2022-12-05T05:15:43.846Z,92.02
2022-12-05T05:21:21.455Z,91.96
2022-12-05T05:26:58.979Z,91.75
2022-12-05T05:32:30.558Z,91.64
2022-12-05T05:38:02.040Z,91.76
2022-12-05T05:43:39.953Z,91.73
2022-12-05T05:49:11.656Z,91.78
2022-12-05T05:54:43.224Z,91.67
2022-12-05T06:00:20.762Z,91.60
2022-12-05T06:05:57.806Z,90.86
2022-12-05T06:11:29.110Z,91.28
2022-12-05T06:17:00.805Z,91.41
2022-12-05T06:22:32.673Z,91.40
2022-12-05T06:28:10.339Z,91.38
2022-12-05T06:33:42.217Z,91.37
2022-12-05T06:39:13.829Z,91.28
2022-12-05T06:44:45.422Z,91.26
2022-12-05T06:50:16.825Z,91.19
2022-12-05T06:55:48.524Z,91.08
2022-12-05T07:01:20.123Z,91.03
2022-12-05T07:06:51.714Z,90.88
2022-12-05T07:12:23.504Z,90.82
2022-12-05T07:17:55.279Z,90.73
2022-12-05T07:23:26.978Z,90.57
2022-12-05T07:28:58.807Z,90.53
2022-12-05T07:34:30.698Z,90.47
2022-12-05T07:40:02.748Z,90.34
2022-12-05T07:51:06.148Z,89.97
2022-12-05T07:56:39.205Z,89.80
2022-12-05T08:02:10.025Z,89.67
2022-12-05T08:07:41.456Z,89.35
2022-12-05T08:13:13.731Z,89.22
2022-12-05T08:18:46.053Z,89.03
2022-12-05T08:24:18.116Z,88.88
2022-12-05T08:29:49.565Z,88.57
2022-12-05T08:35:21.594Z,88.68
2022-12-05T08:40:53.266Z,88.85
2022-12-05T08:46:25.133Z,89.09
2022-12-05T08:51:57.022Z,89.39
2022-12-05T08:57:29.046Z,89.62
2022-12-05T09:03:00.820Z,89.61
2022-12-05T09:08:32.617Z,89.43
2022-12-05T09:14:04.373Z,89.28
2022-12-05T09:19:36.225Z,88.85
2022-12-05T09:25:07.877Z,89.53
2022-12-05T09:30:39.706Z,88.16
2022-12-05T09:36:11.340Z,87.98
2022-12-05T09:41:48.999Z,87.84
2022-12-05T09:52:50.263Z,88.21
2022-12-05T09:58:21.705Z,87.74
2022-12-05T10:03:53.098Z,88.59
2022-12-05T10:09:24.878Z,87.82
2022-12-05T10:14:56.919Z,88.02
2022-12-05T10:20:28.449Z,88.20
2022-12-05T10:26:00.231Z,88.40
2022-12-05T10:31:32.377Z,88.64
2022-12-05T10:37:05.672Z,88.43
2022-12-05T10:42:37.166Z,88.35
2022-12-05T10:48:09.404Z,88.12
2022-12-05T10:53:40.990Z,88.03
2022-12-05T10:59:12.785Z,88.04
2022-12-05T11:04:44.594Z,87.88
2022-12-05T11:10:16.156Z,87.61
2022-12-05T11:15:53.724Z,87.25
2022-12-05T11:21:19.588Z,86.97
2022-12-05T11:26:51.801Z,87.09
2022-12-05T11:32:23.624Z,86.85
2022-12-05T11:37:55.859Z,86.45
2022-12-05T11:43:27.910Z,85.97
2022-12-05T11:49:00.012Z,85.55
2022-12-05T11:55:03.326Z,85.46
2022-12-05T12:00:04.223Z,85.55
2022-12-05T12:05:36.227Z,85.69
2022-12-05T12:11:08.751Z,85.57
2022-12-05T12:16:40.641Z,84.98
2022-12-05T12:22:12.480Z,84.93
2022-12-05T12:27:44.876Z,84.90
2022-12-05T12:38:51.113Z,85.16
2022-12-05T12:44:19.509Z,85.05
2022-12-05T12:49:51.955Z,85.55
2022-12-05T12:55:23.792Z,84.91
2022-12-05T13:00:56.948Z,85.01
2022-12-05T13:06:28.620Z,85.07
2022-12-05T13:12:00.334Z,85.08
2022-12-05T13:17:32.367Z,84.91
2022-12-05T13:23:07.867Z,84.64
2022-12-05T13:28:36.477Z,84.57
2022-12-05T13:39:40.663Z,84.72
2022-12-05T13:45:12.969Z,85.05
2022-12-05T13:50:45.549Z,84.87
2022-12-05T13:56:17.727Z,85.40
2022-12-05T14:01:55.689Z,85.66
2022-12-05T14:07:21.886Z,85.67
2022-12-05T14:12:53.764Z,86.10
2022-12-05T14:18:26.076Z,86.37
2022-12-05T14:23:58.262Z,86.78
2022-12-05T14:29:30.298Z,86.88
2022-12-05T14:35:02.840Z,86.80
2022-12-05T14:40:35.027Z,86.86
2022-12-05T14:46:07.458Z,87.19
2022-12-05T14:51:39.443Z,87.15
2022-12-05T14:57:11.681Z,87.22
2022-12-05T15:02:43.594Z,87.44
2022-12-05T15:08:15.890Z,87.79
2022-12-05T15:13:47.941Z,87.68
2022-12-05T15:19:19.806Z,87.88
2022-12-05T15:24:57.499Z,88.15
2022-12-05T15:30:29.483Z,88.85
2022-12-05T15:36:01.425Z,88.76
2022-12-05T15:41:39.764Z,89.06
2022-12-05T15:47:11.844Z,89.58
2022-12-05T15:52:44.130Z,90.03
2022-12-05T15:54:55.726Z,90.00
2022-12-05T16:02:46.769Z,90.07
2022-12-05T16:08:18.593Z,90.22
2022-12-05T16:13:50.280Z,90.14
2022-12-05T16:19:28.449Z,90.19
2022-12-05T16:25:06.282Z,90.07
2022-12-05T16:30:38.202Z,90.35
2022-12-05T16:36:16.283Z,90.43
2022-12-05T16:41:48.157Z,90.42
2022-12-05T16:47:20.096Z,90.45
2022-12-05T16:52:52.223Z,90.62
2022-12-05T16:58:24.406Z,90.61
2022-12-05T17:03:56.310Z,90.49
2022-12-05T17:09:28.610Z,90.44
2022-12-05T17:15:01.443Z,90.42
2022-12-05T17:20:38.918Z,90.61
2022-12-05T17:26:10.653Z,90.56
2022-12-05T17:31:42.573Z,90.46
2022-12-05T17:37:14.263Z,90.29
2022-12-05T17:42:46.022Z,89.86
2022-12-05T17:48:23.565Z,89.60
2022-12-05T17:53:55.693Z,89.28
2022-12-05T17:59:27.529Z,89.06
2022-12-05T18:07:20.017Z,88.87
2022-12-05T18:12:51.621Z,88.30
2022-12-05T18:18:25.486Z,88.45
2022-12-05T18:23:57.137Z,88.53
2022-12-05T18:29:35.101Z,88.62
2022-12-05T18:35:12.567Z,88.63
2022-12-05T18:40:39.039Z,88.68
2022-12-05T18:46:11.256Z,88.85
2022-12-05T18:51:42.796Z,88.65
2022-12-05T18:57:14.992Z,88.95
2022-12-05T19:02:47.115Z,89.25
2022-12-05T19:08:25.099Z,89.26
2022-12-05T19:13:57.072Z,89.40
2022-12-05T19:19:28.898Z,89.51
2022-12-05T19:25:01.187Z,88.79
2022-12-05T19:30:38.953Z,88.07
2022-12-05T19:36:10.623Z,88.29
2022-12-05T19:41:42.364Z,88.05
2022-12-05T19:47:13.938Z,88.32
2022-12-05T19:52:51.825Z,88.35
2022-12-05T19:58:23.905Z,88.35
2022-12-05T20:09:25.752Z,88.54
2022-12-05T20:14:57.437Z,88.81
2022-12-05T20:20:29.696Z,89.14
2022-12-05T20:26:01.640Z,89.31
2022-12-05T20:31:40.462Z,89.33
2022-12-05T20:42:46.462Z,89.47
2022-12-05T20:48:14.498Z,89.61
2022-12-05T20:53:46.593Z,89.61
2022-12-05T20:59:18.165Z,89.55
2022-12-05T21:04:49.905Z,89.74
2022-12-05T21:10:21.985Z,89.85
2022-12-05T21:15:54.665Z,90.05
2022-12-05T21:26:56.388Z,90.41
2022-12-05T21:32:28.166Z,90.51
2022-12-05T21:37:59.788Z,90.65
2022-12-05T21:43:31.834Z,90.75
2022-12-05T21:49:03.432Z,90.77
2022-12-05T21:54:35.507Z,90.77
2022-12-05T22:05:37.195Z,90.98
2022-12-05T22:11:09.456Z,90.99
2022-12-05T22:16:41.749Z,90.96
2022-12-05T22:22:13.883Z,90.92
2022-12-05T22:27:45.972Z,90.86
2022-12-05T22:33:17.822Z,90.72
2022-12-05T22:38:49.874Z,90.67
2022-12-05T22:44:22.095Z,90.63
2022-12-05T22:49:54.602Z,90.68
2022-12-05T22:55:26.637Z,90.65
2022-12-05T23:06:28.156Z,90.61
2022-12-05T23:12:00.281Z,90.68
2022-12-05T23:17:32.598Z,90.72
2022-12-05T23:23:04.822Z,90.74
2022-12-05T23:28:37.024Z,90.72
2022-12-05T23:34:09.259Z,90.78
2022-12-05T23:39:41.370Z,90.74
2022-12-05T23:45:13.292Z,90.75
2022-12-05T23:50:45.481Z,90.62
2022-12-05T23:56:17.145Z,90.44
